Time;durP1;ratioP1;P1;durP2;ratioP2;P2;SDS_P1;SDS_P2;PMS_P1;PMS_P2;Temp;Humidity;BMP_temperature;BMP_pressure;BME280_temperature;BME280_humidity;BME280_pressure;Samples;Min_cycle;Max_cycle;Signal;HPM_P1;HPM_P2
2023/12/05 00:02:12;;;;;;;14.00;10.90;;;24.50;48.20;;;;;;222872;1263;22555;-50
2023/12/05 00:07:19;;;;;;;14.10;11.10;;;24.50;48.20;;;;;;222528;1263;22510;-50
2023/12/05 00:12:23;;;;;;;13.10;10.20;;;24.60;47.30;;;;;;222765;1264;24410;-48
2023/12/05 00:17:27;;;;;;;13.80;10.60;;;24.40;47.20;;;;;;222642;1260;22555;-48
2023/12/05 00:22:31;;;;;;;11.80;9.70;;;24.30;47.20;;;;;;222425;1263;23924;-49
2023/12/05 00:27:36;;;;;;;14.50;10.50;;;24.20;47.50;;;;;;222760;1266;22505;-48
2023/12/05 00:32:40;;;;;;;12.40;10.00;;;24.00;47.70;;;;;;222762;1266;22537;-48
2023/12/05 00:37:45;;;;;;;12.90;10.70;;;23.90;47.80;;;;;;222452;1268;22527;-52
2023/12/05 00:42:49;;;;;;;14.90;10.50;;;23.90;47.80;;;;;;222708;1266;24127;-51
2023/12/05 00:47:54;;;;;;;13.10;10.30;;;23.90;47.40;;;;;;222854;1263;24219;-49
2023/12/05 00:52:58;;;;;;;13.70;10.10;;;24.10;46.90;;;;;;222564;1264;22564;-48
2023/12/05 00:58:02;;;;;;;11.10;9.60;;;24.30;46.40;;;;;;223789;1269;22515;-48
2023/12/05 01:03:07;;;;;;;11.70;9.80;;;24.50;46.00;;;;;;222797;1266;24272;-49
2023/12/05 01:08:11;;;;;;;16.60;11.10;;;24.50;45.90;;;;;;222507;1263;22515;-51
2023/12/05 01:13:15;;;;;;;12.50;10.00;;;24.50;46.10;;;;;;222505;1266;22629;-47
2023/12/05 01:18:20;;;;;;;12.30;10.20;;;24.50;45.70;;;;;;222788;1263;22531;-50
2023/12/05 01:23:24;;;;;;;11.40;9.50;;;24.30;45.80;;;;;;222762;1266;22510;-52
2023/12/05 01:28:29;;;;;;;13.50;9.80;;;24.20;46.50;;;;;;222803;1266;24193;-49
2023/12/05 01:33:33;;;;;;;13.50;10.30;;;24.00;46.10;;;;;;222807;1264;22595;-51
2023/12/05 01:38:39;;;;;;;12.00;10.20;;;23.90;46.90;;;;;;222634;1267;22517;-52
2023/12/05 01:43:43;;;;;;;12.40;10.30;;;23.80;47.10;;;;;;222702;1255;22636;-50
2023/12/05 01:48:48;;;;;;;12.00;10.10;;;23.80;46.50;;;;;;222615;1269;24183;-50
2023/12/05 01:53:53;;;;;;;14.40;10.70;;;24.10;46.00;;;;;;222957;1269;23908;-47
2023/12/05 01:58:57;;;;;;;10.40;9.30;;;24.30;45.50;;;;;;222892;1266;22630;-49
2023/12/05 02:04:02;;;;;;;12.50;10.00;;;24.50;45.30;;;;;;222734;1267;22512;-52
2023/12/05 02:09:10;;;;;;;13.30;10.00;;;24.60;44.90;;;;;;222526;1264;24194;-49
2023/12/05 02:14:15;;;;;;;12.00;10.00;;;24.60;44.70;;;;;;223056;1266;22536;-47
2023/12/05 02:19:42;;;;;;;13.50;10.20;;;24.50;44.90;;;;;;222526;1267;22638;-48
2023/12/05 02:25:02;;;;;;;12.10;10.00;;;24.40;44.90;;;;;;222419;1264;23779;-50
2023/12/05 02:30:06;;;;;;;14.30;10.60;;;24.20;45.20;;;;;;222696;1269;24270;-52
2023/12/05 02:35:12;;;;;;;14.10;10.30;;;24.10;45.30;;;;;;222506;1266;22636;-51
2023/12/05 02:40:31;;;;;;;11.80;10.40;;;23.90;45.50;;;;;;222908;1265;25256;-50
2023/12/05 02:45:39;;;;;;;10.50;9.50;;;23.80;45.60;;;;;;222955;1263;23909;-49
2023/12/05 02:50:43;;;;;;;12.50;9.60;;;23.80;45.70;;;;;;222613;1266;22528;-49
2023/12/05 02:55:48;;;;;;;11.60;10.10;;;24.00;45.70;;;;;;222393;1263;22656;-47
2023/12/05 03:00:52;;;;;;;12.00;9.70;;;24.20;44.80;;;;;;222728;1267;24365;-52
2023/12/05 03:05:56;;;;;;;11.20;9.20;;;24.40;44.80;;;;;;222509;1269;24186;-47
2023/12/05 03:11:02;;;;;;;10.10;8.70;;;24.50;44.50;;;;;;222963;1266;25268;-49
2023/12/05 03:16:12;;;;;;;11.60;9.00;;;24.60;44.50;;;;;;222673;1264;25466;-49
2023/12/05 03:21:20;;;;;;;13.50;10.00;;;24.50;44.60;;;;;;223145;1266;25380;-47
2023/12/05 03:26:24;;;;;;;11.00;9.80;;;24.40;44.60;;;;;;222822;1269;25278;-48
2023/12/05 03:31:35;;;;;;;10.80;9.70;;;24.20;44.90;;;;;;222507;1264;23895;-47
2023/12/05 03:36:39;;;;;;;10.80;9.70;;;24.10;45.00;;;;;;222768;1263;22515;-47
2023/12/05 03:41:46;;;;;;;13.80;9.70;;;23.90;45.20;;;;;;222836;1264;24175;-46
2023/12/05 03:46:50;;;;;;;11.40;9.40;;;23.90;45.30;;;;;;222504;1264;26775;-47
2023/12/05 03:51:54;;;;;;;11.80;9.70;;;23.80;45.50;;;;;;222495;1263;22785;-49
2023/12/05 03:56:59;;;;;;;10.90;9.20;;;24.10;45.00;;;;;;222386;1269;22515;-49
2023/12/05 04:02:03;;;;;;;10.30;9.10;;;24.30;44.60;;;;;;222513;1264;22538;-48
2023/12/05 04:07:08;;;;;;;10.10;9.10;;;24.50;44.40;;;;;;222300;1264;22829;-47
2023/12/05 04:12:12;;;;;;;11.30;8.70;;;24.50;43.90;;;;;;222362;1264;22854;-47
2023/12/05 04:17:16;;;;;;;12.80;9.70;;;24.60;43.70;;;;;;222558;1269;22518;-47
2023/12/05 04:22:21;;;;;;;11.90;8.90;;;24.50;43.90;;;;;;222312;1268;22513;-49
2023/12/05 04:27:25;;;;;;;10.50;8.70;;;24.50;44.40;;;;;;222698;1267;22517;-47
2023/12/05 04:32:29;;;;;;;11.50;9.90;;;24.30;43.60;;;;;;222466;1254;22987;-50
2023/12/05 04:37:33;;;;;;;11.70;10.20;;;24.00;44.30;;;;;;222575;1257;24200;-51
2023/12/05 04:42:42;;;;;;;28.40;12.30;;;24.00;44.40;;;;;;222795;1267;24263;-50
2023/12/05 04:47:46;;;;;;;11.00;9.90;;;24.00;44.40;;;;;;222755;1253;22620;-47
2023/12/05 04:52:52;;;;;;;10.30;9.20;;;23.90;44.60;;;;;;222915;1266;22664;-50
2023/12/05 04:57:58;;;;;;;10.10;9.00;;;23.80;44.70;;;;;;223194;1267;25322;-48
2023/12/05 05:03:04;;;;;;;10.90;8.30;;;24.10;44.50;;;;;;225466;1269;22625;-47
2023/12/05 05:08:09;;;;;;;9.10;8.00;;;24.40;43.90;;;;;;227825;1263;22512;-48
2023/12/05 05:13:14;;;;;;;12.00;9.70;;;24.60;43.40;;;;;;227821;1264;22542;-47
2023/12/05 05:18:18;;;;;;;11.00;9.90;;;24.80;43.10;;;;;;228530;1267;22602;-47
2023/12/05 05:23:23;;;;;;;11.10;9.30;;;24.80;43.10;;;;;;228273;1254;22557;-47
2023/12/05 05:28:29;;;;;;;12.00;9.30;;;24.60;43.30;;;;;;228209;1261;22001;-46
2023/12/05 05:33:34;;;;;;;12.60;9.00;;;24.50;43.60;;;;;;228493;1264;22541;-46
2023/12/05 05:38:39;;;;;;;11.70;9.50;;;24.30;43.90;;;;;;228478;1263;22617;-47
2023/12/05 05:43:43;;;;;;;10.70;9.00;;;24.10;44.00;;;;;;228685;1264;22919;-47
2023/12/05 05:48:49;;;;;;;11.60;8.90;;;24.10;43.90;;;;;;228355;1269;22636;-46
2023/12/05 05:53:57;;;;;;;10.90;9.00;;;24.20;44.40;;;;;;228353;1269;22596;-46
2023/12/05 05:59:02;;;;;;;11.70;9.10;;;23.90;44.20;;;;;;228356;1264;22571;-48
2023/12/05 06:04:06;;;;;;;13.20;9.90;;;23.70;45.00;;;;;;228351;1264;22761;-45
2023/12/05 06:09:15;;;;;;;10.50;9.40;;;23.70;44.40;;;;;;227433;1264;22586;-51
2023/12/05 06:14:19;;;;;;;11.10;9.90;;;23.50;44.50;;;;;;222479;1264;24209;-49
2023/12/05 06:19:24;;;;;;;12.10;10.10;;;23.40;45.00;;;;;;222614;1266;22996;-48
2023/12/05 06:24:28;;;;;;;10.60;8.60;;;23.50;45.60;;;;;;222093;1267;253844;-50
2023/12/05 06:29:32;;;;;;;9.90;8.90;;;23.80;44.90;;;;;;222430;1269;22515;-51
2023/12/05 06:34:37;;;;;;;9.80;8.60;;;24.00;44.10;;;;;;222499;1261;24193;-48
2023/12/05 06:39:41;;;;;;;11.00;9.80;;;24.20;43.80;;;;;;222747;1267;22573;-49
2023/12/05 06:44:46;;;;;;;13.10;9.50;;;24.10;43.70;;;;;;222667;1267;22524;-51
2023/12/05 06:49:50;;;;;;;11.60;9.60;;;24.10;44.20;;;;;;222662;1256;22507;-48
2023/12/05 06:55:00;;;;;;;10.40;9.10;;;24.00;43.80;;;;;;222324;1253;22625;-49
2023/12/05 07:00:05;;;;;;;11.30;9.40;;;23.90;44.40;;;;;;222789;1263;24441;-50
2023/12/05 07:05:10;;;;;;;14.10;10.10;;;23.90;44.10;;;;;;222748;1263;22486;-53
2023/12/05 07:10:14;;;;;;;11.70;9.30;;;23.80;45.50;;;;;;222610;1266;22525;-48
2023/12/05 07:15:18;;;;;;;10.60;8.70;;;23.60;45.40;;;;;;222489;1266;22514;-51
2023/12/05 07:20:23;;;;;;;11.30;9.80;;;23.40;45.10;;;;;;222647;1266;22642;-47
2023/12/05 07:25:27;;;;;;;11.30;9.50;;;23.30;45.20;;;;;;222873;1266;24365;-51
2023/12/05 07:30:32;;;;;;;10.50;9.40;;;23.20;45.30;;;;;;222958;1269;24480;-52
2023/12/05 07:35:36;;;;;;;12.40;9.80;;;23.10;45.10;;;;;;222801;1263;22527;-47
2023/12/05 07:40:40;;;;;;;14.70;9.70;;;23.60;45.00;;;;;;222711;1264;22540;-50
2023/12/05 07:45:45;;;;;;;10.80;9.30;;;23.90;44.10;;;;;;222837;1264;23893;-51
2023/12/05 07:50:49;;;;;;;12.70;9.80;;;24.10;43.80;;;;;;222793;1264;22619;-55
2023/12/05 07:55:53;;;;;;;12.40;9.30;;;24.20;43.60;;;;;;222689;1254;22519;-54
2023/12/05 08:00:57;;;;;;;19.20;9.40;;;24.10;43.70;;;;;;222562;1263;22515;-52
2023/12/05 08:06:02;;;;;;;13.00;9.70;;;24.00;43.90;;;;;;222641;1264;24366;-52
2023/12/05 08:11:06;;;;;;;11.00;9.40;;;23.90;44.30;;;;;;222906;1263;22576;-52
2023/12/05 08:16:10;;;;;;;13.00;9.80;;;23.80;44.40;;;;;;223191;1263;22602;-56
2023/12/05 08:21:15;;;;;;;10.20;9.20;;;23.70;45.00;;;;;;222255;1266;22655;-54
2023/12/05 08:26:19;;;;;;;11.00;9.70;;;23.50;44.80;;;;;;222556;1263;24228;-56
2023/12/05 08:31:24;;;;;;;13.60;10.30;;;23.60;44.80;;;;;;222445;1263;22524;-48
2023/12/05 08:36:28;;;;;;;14.40;9.50;;;23.40;45.30;;;;;;222309;1263;22630;-47
2023/12/05 08:41:33;;;;;;;14.30;9.80;;;23.40;45.50;;;;;;222687;1250;22586;-51
2023/12/05 08:46:37;;;;;;;12.90;9.60;;;23.30;45.50;;;;;;222808;1269;22511;-51
2023/12/05 08:51:42;;;;;;;13.20;9.80;;;23.20;45.70;;;;;;222868;1263;24185;-55
2023/12/05 08:56:46;;;;;;;13.20;9.80;;;23.20;46.00;;;;;;222396;1268;22524;-55
2023/12/05 09:01:52;;;;;;;15.40;9.70;;;23.10;46.40;;;;;;222388;1263;22573;-48
2023/12/05 09:06:57;;;;;;;19.50;9.30;;;23.10;47.50;;;;;;222744;1263;24198;-47
2023/12/05 09:12:01;;;;;;;12.80;9.30;;;23.00;47.50;;;;;;222993;1263;22528;-49
2023/12/05 09:17:09;;;;;;;14.10;9.10;;;23.20;47.70;;;;;;222635;1269;24061;-48
2023/12/05 09:22:13;;;;;;;18.80;9.20;;;23.50;46.50;;;;;;222544;1266;22627;-47
2023/12/05 09:27:17;;;;;;;15.00;9.60;;;23.80;45.90;;;;;;222720;1259;22586;-48
2023/12/05 09:32:21;;;;;;;12.00;8.90;;;23.80;45.70;;;;;;222613;1253;24266;-51
2023/12/05 09:37:26;;;;;;;17.70;9.40;;;23.70;46.30;;;;;;222801;1268;22674;-47
2023/12/05 09:42:31;;;;;;;13.30;9.00;;;23.60;46.30;;;;;;222769;1266;22605;-47
2023/12/05 09:47:36;;;;;;;16.20;9.10;;;23.40;46.50;;;;;;222778;1263;22620;-48
2023/12/05 09:52:42;;;;;;;10.80;9.20;;;23.30;47.00;;;;;;222693;1247;25455;-50
2023/12/05 09:57:48;;;;;;;10.20;8.50;;;23.10;47.10;;;;;;222813;1263;22528;-48
2023/12/05 10:02:54;;;;;;;15.80;9.80;;;23.10;47.30;;;;;;222652;1263;25439;-48
2023/12/05 10:07:58;;;;;;;44.00;23.80;;;22.90;47.40;;;;;;222408;1263;25413;-46
2023/12/05 10:13:04;;;;;;;70.70;34.40;;;22.90;47.40;;;;;;222618;1260;25399;-50
2023/12/05 10:18:08;;;;;;;119.50;60.10;;;22.90;47.90;;;;;;222583;1253;25475;-49
2023/12/05 10:23:13;;;;;;;99.80;50.80;;;23.00;48.60;;;;;;222407;1267;22536;-48
2023/12/05 10:28:17;;;;;;;98.00;48.60;;;23.30;48.50;;;;;;222518;1263;22594;-46
2023/12/05 10:33:22;;;;;;;95.00;47.20;;;23.50;49.40;;;;;;222614;1264;22596;-49
2023/12/05 10:38:27;;;;;;;90.50;45.20;;;23.60;49.10;;;;;;222272;1266;22528;-47
2023/12/05 10:43:31;;;;;;;83.50;45.10;;;23.60;49.80;;;;;;222579;1256;24401;-48
2023/12/05 10:48:36;;;;;;;87.30;45.00;;;23.70;50.40;;;;;;222339;1263;22607;-47
2023/12/05 10:53:41;;;;;;;82.40;43.50;;;23.60;50.60;;;;;;222292;1254;22548;-46
2023/12/05 10:58:47;;;;;;;76.70;42.40;;;23.50;50.40;;;;;;222715;1266;25284;-47
2023/12/05 11:03:52;;;;;;;80.50;40.70;;;23.40;52.20;;;;;;222684;1263;24256;-49
2023/12/05 11:08:56;;;;;;;77.90;40.30;;;23.50;52.70;;;;;;222556;1255;22623;-46
2023/12/05 11:14:02;;;;;;;72.40;39.10;;;23.40;52.60;;;;;;222667;1253;23142;-48
2023/12/05 11:19:27;;;;;;;74.40;39.90;;;23.30;52.20;;;;;;222648;1266;22524;-50
2023/12/05 11:25:01;;;;;;;87.90;39.40;;;23.30;53.60;;;;;;222669;1247;22519;-49
2023/12/05 11:30:27;;;;;;;75.50;38.70;;;23.40;52.80;;;;;;222338;1268;23801;-49
2023/12/05 11:36:01;;;;;;;68.60;36.70;;;23.40;52.70;;;;;;222406;1266;22514;-52
2023/12/05 11:41:13;;;;;;;71.40;36.30;;;23.30;53.20;;;;;;222514;1263;22514;-52
2023/12/05 11:46:18;;;;;;;64.80;35.30;;;23.20;52.60;;;;;;222671;1263;24246;-47
2023/12/05 11:51:23;;;;;;;57.40;33.30;;;23.10;52.80;;;;;;222845;1254;25234;-48
2023/12/05 11:56:30;;;;;;;61.20;33.40;;;23.10;53.20;;;;;;223067;1263;22584;-49
2023/12/05 12:01:35;;;;;;;63.60;33.00;;;23.10;53.10;;;;;;222627;1263;25797;-47
2023/12/05 12:06:39;;;;;;;51.60;30.70;;;23.10;53.20;;;;;;222813;1264;22598;-51
2023/12/05 12:11:47;;;;;;;48.80;30.70;;;23.10;53.70;;;;;;222675;1263;22963;-49
2023/12/05 12:16:51;;;;;;;54.80;31.50;;;23.00;53.50;;;;;;222313;1266;25043;-47
2023/12/05 12:21:56;;;;;;;51.90;30.10;;;23.00;53.20;;;;;;222172;1268;24190;-48
2023/12/05 12:27:00;;;;;;;49.10;29.60;;;22.90;53.70;;;;;;222838;1263;25708;-54
2023/12/05 12:32:13;;;;;;;51.40;29.40;;;22.90;53.80;;;;;;222683;1253;22517;-50
2023/12/05 12:37:18;;;;;;;43.00;27.30;;;22.80;54.00;;;;;;222594;1263;22537;-49
2023/12/05 12:42:25;;;;;;;46.80;28.30;;;22.70;54.00;;;;;;222642;1255;23130;-52
2023/12/05 12:47:29;;;;;;;43.90;26.80;;;23.20;53.70;;;;;;222281;1263;22528;-49
2023/12/05 12:52:33;;;;;;;48.10;26.10;;;23.50;53.40;;;;;;222719;1256;22566;-52
2023/12/05 12:57:37;;;;;;;44.20;25.90;;;23.80;53.20;;;;;;222221;1263;25241;-52
2023/12/05 13:02:42;;;;;;;39.60;26.50;;;24.00;52.50;;;;;;222173;1266;22507;-53
2023/12/05 13:07:50;;;;;;;46.10;25.30;;;24.00;53.00;;;;;;222360;1263;22521;-53
2023/12/05 13:12:56;;;;;;;51.50;25.40;;;23.90;53.80;;;;;;222640;1254;22514;-52
2023/12/05 13:18:06;;;;;;;38.40;22.50;;;23.70;53.60;;;;;;222454;1263;22553;-47
2023/12/05 13:23:11;;;;;;;40.00;24.10;;;23.70;54.00;;;;;;222553;1263;25353;-50
2023/12/05 13:28:17;;;;;;;45.40;23.20;;;23.50;54.30;;;;;;222153;1263;25514;-50
2023/12/05 13:33:23;;;;;;;35.70;22.50;;;23.20;55.30;;;;;;222551;1247;22702;-50
2023/12/05 13:38:28;;;;;;;40.90;23.50;;;23.00;55.60;;;;;;222440;1266;22523;-48
2023/12/05 13:43:32;;;;;;;39.20;23.50;;;22.90;56.10;;;;;;222339;1257;22620;-50
2023/12/05 13:48:38;;;;;;;34.10;21.90;;;22.80;56.20;;;;;;222354;1267;24199;-53
2023/12/05 13:53:42;;;;;;;37.50;21.70;;;22.70;56.60;;;;;;222944;1268;22531;-49
2023/12/05 13:58:48;;;;;;;36.90;20.80;;;22.80;56.50;;;;;;222324;1263;23017;-51
2023/12/05 14:03:52;;;;;;;29.80;19.40;;;23.30;55.90;;;;;;222607;1266;24269;-54
2023/12/05 14:08:57;;;;;;;37.30;21.10;;;23.60;55.00;;;;;;222496;1259;24177;-52
2023/12/05 14:14:05;;;;;;;29.00;19.30;;;23.90;54.60;;;;;;222465;1263;24201;-49
2023/12/05 14:19:10;;;;;;;27.80;19.00;;;23.90;54.50;;;;;;222228;1263;22834;-50
2023/12/05 14:24:15;;;;;;;27.40;18.40;;;23.80;54.00;;;;;;222344;1263;22506;-53
2023/12/05 14:29:19;;;;;;;29.00;18.10;;;23.50;53.90;;;;;;222406;1263;25377;-49
2023/12/05 14:34:24;;;;;;;27.40;17.50;;;23.40;53.50;;;;;;223157;1263;22640;-50
2023/12/05 14:39:31;;;;;;;28.00;17.50;;;23.30;53.60;;;;;;222618;1256;24180;-52
2023/12/05 14:44:35;;;;;;;27.40;17.60;;;23.20;54.30;;;;;;222406;1261;23754;-50
2023/12/05 14:49:40;;;;;;;26.80;17.90;;;23.40;54.90;;;;;;222405;1257;22520;-54
2023/12/05 14:54:44;;;;;;;24.30;17.50;;;23.40;55.80;;;;;;222604;1267;22513;-53
2023/12/05 14:59:49;;;;;;;29.40;18.10;;;23.40;57.20;;;;;;222600;1261;22524;-50
2023/12/05 15:04:55;;;;;;;31.60;19.00;;;23.30;57.10;;;;;;222512;1269;22772;-49
2023/12/05 15:10:01;;;;;;;32.00;21.40;;;23.30;57.80;;;;;;222559;1266;22527;-52
2023/12/05 15:15:07;;;;;;;24.40;18.00;;;23.30;58.10;;;;;;222344;1263;24154;-50
2023/12/05 15:20:12;;;;;;;32.90;19.20;;;23.30;58.80;;;;;;223026;1262;25501;-48
2023/12/05 15:25:26;;;;;;;27.60;18.30;;;23.10;61.20;;;;;;222992;1266;22613;-53
2023/12/05 15:30:30;;;;;;;25.70;17.40;;;23.30;62.10;;;;;;222473;1261;22745;-49
2023/12/05 15:35:35;;;;;;;23.50;16.70;;;23.80;61.90;;;;;;222263;1263;22530;-52
2023/12/05 15:40:40;;;;;;;22.10;15.90;;;24.20;61.20;;;;;;222519;1261;22514;-52
2023/12/05 15:45:44;;;;;;;23.30;16.50;;;24.40;61.00;;;;;;222319;1265;22784;-50
2023/12/05 15:50:48;;;;;;;28.50;17.20;;;24.40;60.80;;;;;;222617;1261;23783;-50
2023/12/05 15:55:54;;;;;;;28.60;17.90;;;24.30;60.90;;;;;;222723;1263;26727;-49
2023/12/05 16:00:58;;;;;;;26.20;18.20;;;24.20;61.50;;;;;;222630;1253;24221;-52
2023/12/05 16:06:03;;;;;;;25.60;17.40;;;24.10;60.70;;;;;;222443;1261;25371;-49
2023/12/05 16:11:08;;;;;;;21.70;16.70;;;24.00;60.10;;;;;;222650;1266;22648;-45
2023/12/05 16:16:12;;;;;;;21.60;16.10;;;23.80;59.70;;;;;;222639;1263;24190;-47
2023/12/05 16:21:21;;;;;;;24.70;15.60;;;23.70;59.70;;;;;;222918;1266;22521;-47
2023/12/05 16:26:28;;;;;;;23.10;14.90;;;23.60;59.80;;;;;;223143;1263;24180;-50
2023/12/05 16:31:33;;;;;;;21.20;16.20;;;23.50;59.40;;;;;;222681;1266;22514;-52
2023/12/05 16:36:38;;;;;;;21.10;15.80;;;23.50;59.40;;;;;;222801;1253;22641;-47
2023/12/05 16:41:43;;;;;;;21.40;15.30;;;23.40;59.30;;;;;;222416;1253;25408;-48
2023/12/05 16:46:47;;;;;;;23.10;16.10;;;23.20;58.60;;;;;;222614;1268;23429;-49
2023/12/05 16:51:51;;;;;;;23.20;16.10;;;23.10;59.20;;;;;;222404;1269;22652;-51
2023/12/05 16:56:56;;;;;;;19.40;15.50;;;23.00;59.10;;;;;;223095;1262;22629;-51
2023/12/05 17:02:01;;;;;;;19.20;14.70;;;23.10;59.10;;;;;;222717;1266;22528;-48
2023/12/05 17:07:05;;;;;;;19.30;15.00;;;23.50;58.70;;;;;;222670;1262;22633;-50
2023/12/05 17:12:10;;;;;;;17.00;14.40;;;23.80;57.50;;;;;;222261;1260;25475;-47
2023/12/05 17:17:15;;;;;;;16.60;13.70;;;23.90;56.80;;;;;;222410;1258;22607;-49
2023/12/05 17:22:25;;;;;;;19.30;14.80;;;24.00;56.20;;;;;;222633;1269;22630;-53
2023/12/05 17:27:30;;;;;;;16.60;14.20;;;23.90;57.00;;;;;;222673;1254;22514;-48
2023/12/05 17:32:34;;;;;;;19.40;15.20;;;23.70;56.50;;;;;;222557;1269;22521;-49
2023/12/05 17:37:39;;;;;;;18.60;14.20;;;23.60;57.30;;;;;;222564;1266;25265;-50
2023/12/05 17:42:43;;;;;;;16.00;14.10;;;23.40;57.40;;;;;;222647;1247;24183;-47
2023/12/05 17:47:48;;;;;;;17.80;14.60;;;23.30;57.70;;;;;;222470;1269;22597;-46
2023/12/05 17:52:53;;;;;;;18.70;14.80;;;23.20;57.80;;;;;;222901;1264;22526;-49
2023/12/05 17:57:57;;;;;;;18.70;15.10;;;23.00;58.00;;;;;;222660;1266;24433;-51
2023/12/05 18:03:02;;;;;;;16.00;14.30;;;23.00;57.70;;;;;;222694;1256;25185;-51
2023/12/05 18:08:06;;;;;;;16.50;14.60;;;23.40;56.70;;;;;;222902;1268;25450;-48
2023/12/05 18:13:12;;;;;;;17.80;14.80;;;23.70;55.60;;;;;;222200;1266;22781;-51
2023/12/05 18:18:17;;;;;;;16.50;13.80;;;23.90;54.90;;;;;;222837;1259;24196;-50
2023/12/05 18:23:22;;;;;;;17.30;13.50;;;24.10;54.50;;;;;;222469;1269;314671;-51
2023/12/05 18:28:29;;;;;;;16.70;14.70;;;24.00;54.40;;;;;;222530;1264;24377;-48
2023/12/05 18:33:34;;;;;;;17.60;15.00;;;23.90;54.40;;;;;;222821;1263;25233;-47
2023/12/05 18:38:39;;;;;;;19.40;15.20;;;23.80;54.50;;;;;;222780;1266;24055;-51
2023/12/05 18:43:44;;;;;;;15.60;13.10;;;23.70;54.80;;;;;;223003;1263;24660;-47
2023/12/05 18:48:49;;;;;;;16.20;13.70;;;23.40;55.00;;;;;;222471;1266;22527;-48
2023/12/05 18:53:56;;;;;;;16.00;14.50;;;23.30;55.10;;;;;;222700;1266;24331;-47
2023/12/05 18:59:00;;;;;;;16.20;13.90;;;23.20;55.20;;;;;;222726;1257;25408;-48
2023/12/05 19:04:06;;;;;;;15.50;13.80;;;23.10;55.20;;;;;;222624;1254;24068;-46
2023/12/05 19:09:12;;;;;;;17.30;14.60;;;23.10;54.80;;;;;;222719;1268;23890;-50
2023/12/05 19:14:19;;;;;;;14.90;13.50;;;23.40;54.10;;;;;;222734;1266;23802;-48
2023/12/05 19:19:24;;;;;;;17.90;14.20;;;23.70;53.40;;;;;;222745;1266;22525;-50
2023/12/05 19:24:30;;;;;;;15.60;12.90;;;23.90;53.00;;;;;;222835;1269;25227;-48
2023/12/05 19:29:38;;;;;;;16.40;13.50;;;24.10;52.50;;;;;;222783;1263;22514;-49
2023/12/05 19:34:43;;;;;;;15.10;13.60;;;24.00;52.80;;;;;;223076;1262;25409;-50
2023/12/05 19:39:51;;;;;;;14.50;12.90;;;23.90;52.40;;;;;;222780;1263;22560;-46
2023/12/05 19:44:58;;;;;;;15.20;13.30;;;23.70;52.20;;;;;;222879;1266;22533;-48
2023/12/05 19:50:04;;;;;;;14.60;12.60;;;23.70;52.50;;;;;;222882;1265;24246;-49
2023/12/05 19:55:09;;;;;;;16.70;14.50;;;23.60;52.60;;;;;;222991;1264;24359;-48
2023/12/05 20:00:15;;;;;;;16.30;14.60;;;23.40;52.80;;;;;;222573;1266;22636;-51
2023/12/05 20:05:21;;;;;;;17.80;14.90;;;23.20;53.20;;;;;;222661;1262;24401;-48
2023/12/05 20:10:27;;;;;;;17.60;15.70;;;23.10;53.20;;;;;;222503;1264;25247;-49
2023/12/05 20:15:33;;;;;;;20.90;15.50;;;23.20;52.60;;;;;;222443;1266;22532;-53
2023/12/05 20:20:39;;;;;;;17.70;14.80;;;23.60;51.90;;;;;;223246;1266;25227;-50
2023/12/05 20:25:44;;;;;;;19.30;16.20;;;23.90;51.50;;;;;;222795;1262;24272;-48
2023/12/05 20:30:50;;;;;;;16.90;14.70;;;24.00;51.00;;;;;;223034;1264;24410;-47
2023/12/05 20:35:55;;;;;;;17.70;15.30;;;24.10;50.50;;;;;;223148;1264;24249;-50
2023/12/05 20:41:03;;;;;;;19.90;14.90;;;24.10;50.30;;;;;;222848;1266;23890;-48
2023/12/05 20:46:09;;;;;;;25.00;16.10;;;23.90;49.90;;;;;;222759;1263;23782;-52
2023/12/05 20:51:14;;;;;;;19.50;15.40;;;23.70;49.80;;;;;;222575;1266;24448;-51
2023/12/05 20:56:19;;;;;;;19.20;14.40;;;23.40;50.60;;;;;;222599;1262;22533;-53
2023/12/05 21:01:23;;;;;;;20.90;15.60;;;23.20;51.20;;;;;;222370;1264;22529;-49
2023/12/05 21:06:27;;;;;;;26.10;15.80;;;23.10;52.00;;;;;;222169;1264;25224;-52
2023/12/05 21:11:32;;;;;;;23.10;14.40;;;22.90;52.60;;;;;;221936;1260;22623;-53
2023/12/05 21:16:36;;;;;;;21.20;14.40;;;23.20;51.80;;;;;;221766;1270;23931;-53
2023/12/05 21:21:41;;;;;;;18.50;14.50;;;23.50;51.60;;;;;;222181;1266;25239;-53
2023/12/05 21:26:45;;;;;;;28.20;14.60;;;23.80;51.10;;;;;;222255;1256;25422;-50
2023/12/05 21:31:49;;;;;;;20.00;14.20;;;23.90;51.00;;;;;;222058;1271;25351;-49
2023/12/05 21:36:54;;;;;;;22.30;13.40;;;24.10;50.90;;;;;;222172;1266;22553;-48
2023/12/05 21:41:59;;;;;;;18.30;13.60;;;24.20;51.00;;;;;;222054;1260;25328;-48
2023/12/05 21:47:04;;;;;;;22.50;14.20;;;24.40;50.40;;;;;;222109;1264;22530;-48
2023/12/05 21:52:08;;;;;;;18.10;12.80;;;24.40;50.60;;;;;;222112;1264;24070;-53
2023/12/05 21:57:13;;;;;;;16.80;13.30;;;24.30;50.30;;;;;;222141;1269;22543;-53
2023/12/05 22:02:17;;;;;;;17.60;14.80;;;24.10;50.60;;;;;;222091;1269;22520;-51
2023/12/05 22:07:22;;;;;;;16.80;13.80;;;24.10;50.50;;;;;;222006;1269;22563;-47
2023/12/05 22:12:27;;;;;;;14.80;13.30;;;24.00;50.90;;;;;;222424;1269;22649;-49
2023/12/05 22:17:33;;;;;;;19.10;14.00;;;23.80;51.00;;;;;;222577;1267;22586;-48
2023/12/05 22:22:38;;;;;;;19.20;15.20;;;23.60;51.50;;;;;;222744;1265;25261;-48
2023/12/05 22:27:43;;;;;;;14.50;12.90;;;23.60;51.90;;;;;;222879;1256;22637;-50
2023/12/05 22:32:47;;;;;;;20.40;14.80;;;23.70;51.20;;;;;;222454;1269;22546;-47
2023/12/05 22:37:52;;;;;;;17.00;14.10;;;23.90;50.00;;;;;;222494;1269;22524;-49
2023/12/05 22:42:56;;;;;;;18.10;14.50;;;24.10;49.80;;;;;;222550;1262;22661;-50
2023/12/05 22:48:01;;;;;;;17.10;15.30;;;24.10;50.30;;;;;;222473;1266;25322;-48
2023/12/05 22:53:05;;;;;;;16.50;14.40;;;24.10;49.60;;;;;;222780;1267;22521;-50
2023/12/05 22:58:10;;;;;;;16.80;14.30;;;23.90;50.60;;;;;;222746;1266;22523;-52
2023/12/05 23:03:17;;;;;;;18.90;14.20;;;23.90;50.00;;;;;;222659;1256;22561;-50
2023/12/05 23:08:21;;;;;;;15.70;13.90;;;23.90;50.10;;;;;;222400;1263;24279;-50
2023/12/05 23:13:25;;;;;;;17.40;14.10;;;24.10;52.20;;;;;;222632;1269;22521;-64
2023/12/05 23:18:30;;;;;;;18.50;13.60;;;24.00;51.50;;;;;;222672;1255;22528;-48
2023/12/05 23:23:34;;;;;;;17.20;15.00;;;23.90;51.40;;;;;;222475;1264;24264;-52
2023/12/05 23:28:38;;;;;;;22.80;14.30;;;23.90;53.30;;;;;;222776;1266;22567;-50
2023/12/05 23:33:42;;;;;;;16.90;13.90;;;23.70;52.60;;;;;;222659;1267;22518;-48
2023/12/05 23:38:47;;;;;;;21.30;14.90;;;23.50;53.00;;;;;;222866;1263;24406;-48
2023/12/05 23:43:51;;;;;;;16.80;14.00;;;23.50;52.80;;;;;;222813;1257;22795;-49
2023/12/05 23:48:56;;;;;;;19.10;13.40;;;23.40;52.80;;;;;;222497;1263;24676;-50
2023/12/05 23:54:00;;;;;;;16.30;13.40;;;23.60;52.20;;;;;;222250;1269;22518;-52
2023/12/05 23:59:05;;;;;;;18.00;13.40;;;24.00;51.30;;;;;;223030;1263;22533;-50
